Airfield :







YOU CAN JOIN US ON...

 
LOGIN :

Register | Disclaimer

   EN    FR    IT 

 









Legend :    VFR   Marginal VFR   IFR   Intensive IFR   Very Intensive IFR
Visi :
Ceiling :
>= 8 km
>= 3000ft
5 to 8 km
1000 to 3000 ft
1500m to 5 km
500 to 1000 ft
800 to 1500m
200 to 500 ft
< 800m
< 200 ft
Symbols :   Thunderstorms  Fog  Heavy snow  Heavy precipitations  Wind > 20 kt






- Airport Elevation : 545 ft


KLCI - Laconia Municipal

CURRENT METAR :
  • 200456Z AUTO 00000KT 10SM BKN100 10/09 A3028 RMK AO2 SLP254 T01000094 401440022

EXPIRED METARs :
  • 200356Z AUTO 00000KT 10SM FEW070 BKN080 OVC110 11/09 A3030 RMK AO2 RAB01E19 SLP263 P0000 T01060094
  • 200256Z AUTO 26003KT 10SM BKN070 BKN100 OVC120 11/09 A3030 RMK AO2 RAB09E51 SLP264 P0000 60000 T01110089 50000

TAF N/A
KZBW FIR / North America



MET'MAP, your aeronautical weather chart ! - Copyright ORBIFLY December 2007 - Disclaimer

ORBIFLY MET'MAP TEAM :

Programming & Development : Alexandra Zaïnal
Concept & original design : Baudouin d'Aumeries
Assistance for programming : Marc-Olivier Méhu
Technical & hardware support : Manuel Goepfert

Contact : metmap@orbifly.com




SOURCES & CREDITS :

   NOAA